CSN6 weather

Saint John (Saint John Regional Hospital) Heliport
Saint John, New Brunswick, Canada

Public forecast

Using degrees Celsius for public forecast. Weather courtesy of forecast.io.

METAR (pilot weather report)

Closest report is Saint John Airport, 8.4 nm (15.5 km) E. Retrieved 2019/08/21 10:00 UTC (41 minutes ago):

CYSJ 211000Z 00000KT 15SM SCT290 10/10 A3003 RMK CI3 SLP170

TAF (pilot weather forecast)

Closest forecast is Saint John Airport, 8.4 nm (15.5 km) E. Retrieved 2019/08/21 06:39 UTC (4 hours ago):

TAF CYSJ 210538Z 2106/2118 VRB03KT P6SM SKC BECMG 2113/2115 20012KT RMK NXT FCST BY 211200Z